sensor_id;sensor_type;location;lat;lon;timestamp;P1;durP1;ratioP1;P2;durP2;ratioP2
68653;SDS011;55636;51.108;13.622;2023-09-08T00:00:02;7.75;;;5.90;;
68653;SDS011;55636;51.108;13.622;2023-09-08T00:01:05;7.90;;;6.57;;
68653;SDS011;55636;51.108;13.622;2023-09-08T00:02:08;6.90;;;6.20;;
68653;SDS011;55636;51.108;13.622;2023-09-08T00:03:10;6.72;;;6.13;;
68653;SDS011;55636;51.108;13.622;2023-09-08T00:04:13;6.85;;;6.15;;
68653;SDS011;55636;51.108;13.622;2023-09-08T00:05:17;8.02;;;6.57;;
68653;SDS011;55636;51.108;13.622;2023-09-08T00:06:19;7.20;;;6.50;;
68653;SDS011;55636;51.108;13.622;2023-09-08T00:07:21;9.63;;;6.88;;
68653;SDS011;55636;51.108;13.622;2023-09-08T00:08:24;7.10;;;6.40;;
68653;SDS011;55636;51.108;13.622;2023-09-08T00:09:27;7.25;;;6.40;;
68653;SDS011;55636;51.108;13.622;2023-09-08T00:10:29;7.05;;;6.35;;
68653;SDS011;55636;51.108;13.622;2023-09-08T00:11:32;7.72;;;6.32;;
68653;SDS011;55636;51.108;13.622;2023-09-08T00:12:34;8.02;;;6.28;;
68653;SDS011;55636;51.108;13.622;2023-09-08T00:13:36;7.32;;;6.40;;
68653;SDS011;55636;51.108;13.622;2023-09-08T00:14:39;7.47;;;6.50;;
68653;SDS011;55636;51.108;13.622;2023-09-08T00:15:41;7.13;;;6.43;;
68653;SDS011;55636;51.108;13.622;2023-09-08T00:16:44;9.55;;;6.63;;
68653;SDS011;55636;51.108;13.622;2023-09-08T00:17:46;7.32;;;6.53;;
68653;SDS011;55636;51.108;13.622;2023-09-08T00:18:49;7.50;;;6.53;;
68653;SDS011;55636;51.108;13.622;2023-09-08T00:19:52;8.93;;;6.80;;
68653;SDS011;55636;51.108;13.622;2023-09-08T00:20:54;7.97;;;6.72;;
68653;SDS011;55636;51.108;13.622;2023-09-08T00:21:57;8.30;;;6.85;;
68653;SDS011;55636;51.108;13.622;2023-09-08T00:23:00;10.85;;;7.03;;
68653;SDS011;55636;51.108;13.622;2023-09-08T00:24:03;7.43;;;6.63;;
68653;SDS011;55636;51.108;13.622;2023-09-08T00:25:06;7.32;;;6.53;;
68653;SDS011;55636;51.108;13.622;2023-09-08T00:26:09;7.50;;;6.65;;
68653;SDS011;55636;51.108;13.622;2023-09-08T00:27:12;7.13;;;6.43;;
68653;SDS011;55636;51.108;13.622;2023-09-08T00:28:14;7.45;;;6.60;;
68653;SDS011;55636;51.108;13.622;2023-09-08T00:29:17;7.43;;;6.70;;
68653;SDS011;55636;51.108;13.622;2023-09-08T00:30:19;7.88;;;6.53;;
68653;SDS011;55636;51.108;13.622;2023-09-08T00:31:22;8.10;;;6.60;;
68653;SDS011;55636;51.108;13.622;2023-09-08T00:32:24;8.25;;;7.20;;
68653;SDS011;55636;51.108;13.622;2023-09-08T00:33:27;7.45;;;6.75;;
68653;SDS011;55636;51.108;13.622;2023-09-08T00:34:30;8.15;;;6.45;;
68653;SDS011;55636;51.108;13.622;2023-09-08T00:35:32;7.32;;;6.43;;
68653;SDS011;55636;51.108;13.622;2023-09-08T00:36:36;7.10;;;6.40;;
68653;SDS011;55636;51.108;13.622;2023-09-08T00:37:39;7.10;;;6.25;;
68653;SDS011;55636;51.108;13.622;2023-09-08T00:38:42;7.95;;;7.07;;
68653;SDS011;55636;51.108;13.622;2023-09-08T00:39:44;6.93;;;6.22;;
68653;SDS011;55636;51.108;13.622;2023-09-08T00:40:47;7.00;;;6.30;;
68653;SDS011;55636;51.108;13.622;2023-09-08T00:41:49;8.82;;;6.80;;
68653;SDS011;55636;51.108;13.622;2023-09-08T00:42:52;7.25;;;6.55;;
68653;SDS011;55636;51.108;13.622;2023-09-08T00:43:54;7.15;;;6.45;;
68653;SDS011;55636;51.108;13.622;2023-09-08T00:44:56;9.73;;;6.78;;
68653;SDS011;55636;51.108;13.622;2023-09-08T00:45:59;8.02;;;7.18;;
68653;SDS011;55636;51.108;13.622;2023-09-08T00:47:05;9.20;;;7.05;;
68653;SDS011;55636;51.108;13.622;2023-09-08T00:48:08;8.10;;;6.55;;
68653;SDS011;55636;51.108;13.622;2023-09-08T00:49:11;7.35;;;6.57;;
68653;SDS011;55636;51.108;13.622;2023-09-08T00:50:14;7.53;;;6.70;;
68653;SDS011;55636;51.108;13.622;2023-09-08T00:51:17;7.90;;;6.70;;
68653;SDS011;55636;51.108;13.622;2023-09-08T00:52:19;7.93;;;6.88;;
68653;SDS011;55636;51.108;13.622;2023-09-08T00:53:22;7.40;;;6.70;;
68653;SDS011;55636;51.108;13.622;2023-09-08T00:54:25;7.93;;;6.75;;
68653;SDS011;55636;51.108;13.622;2023-09-08T00:55:27;7.75;;;6.75;;
68653;SDS011;55636;51.108;13.622;2023-09-08T00:56:30;8.80;;;7.32;;
68653;SDS011;55636;51.108;13.622;2023-09-08T00:57:32;7.75;;;6.93;;
68653;SDS011;55636;51.108;13.622;2023-09-08T00:58:35;7.93;;;7.13;;
68653;SDS011;55636;51.108;13.622;2023-09-08T00:59:38;7.60;;;6.80;;
68653;SDS011;55636;51.108;13.622;2023-09-08T01:00:41;7.45;;;6.65;;
68653;SDS011;55636;51.108;13.622;2023-09-08T01:01:44;8.10;;;6.80;;
68653;SDS011;55636;51.108;13.622;2023-09-08T01:02:46;7.85;;;6.30;;
68653;SDS011;55636;51.108;13.622;2023-09-08T01:03:48;7.18;;;6.47;;
68653;SDS011;55636;51.108;13.622;2023-09-08T01:04:51;7.25;;;6.55;;
68653;SDS011;55636;51.108;13.622;2023-09-08T01:05:54;8.00;;;7.15;;
68653;SDS011;55636;51.108;13.622;2023-09-08T01:06:59;7.22;;;6.53;;
68653;SDS011;55636;51.108;13.622;2023-09-08T01:08:02;7.10;;;6.40;;
68653;SDS011;55636;51.108;13.622;2023-09-08T01:09:05;8.00;;;7.03;;
68653;SDS011;55636;51.108;13.622;2023-09-08T01:10:08;7.95;;;6.60;;
68653;SDS011;55636;51.108;13.622;2023-09-08T01:11:11;8.60;;;6.53;;
68653;SDS011;55636;51.108;13.622;2023-09-08T01:12:14;7.80;;;7.00;;
68653;SDS011;55636;51.108;13.622;2023-09-08T01:13:17;7.07;;;6.38;;
68653;SDS011;55636;51.108;13.622;2023-09-08T01:14:19;9.93;;;6.97;;
68653;SDS011;55636;51.108;13.622;2023-09-08T01:15:22;7.50;;;6.30;;
68653;SDS011;55636;51.108;13.622;2023-09-08T01:16:25;7.53;;;6.43;;
68653;SDS011;55636;51.108;13.622;2023-09-08T01:17:27;8.50;;;6.18;;
68653;SDS011;55636;51.108;13.622;2023-09-08T01:18:30;7.53;;;6.40;;
68653;SDS011;55636;51.108;13.622;2023-09-08T01:19:32;6.93;;;6.22;;
68653;SDS011;55636;51.108;13.622;2023-09-08T01:20:42;7.57;;;6.78;;
68653;SDS011;55636;51.108;13.622;2023-09-08T01:22:13;6.72;;;6.00;;
68653;SDS011;55636;51.108;13.622;2023-09-08T01:23:41;7.40;;;6.60;;
68653;SDS011;55636;51.108;13.622;2023-09-08T01:26:21;6.93;;;6.22;;
68653;SDS011;55636;51.108;13.622;2023-09-08T01:27:28;7.40;;;6.70;;
68653;SDS011;55636;51.108;13.622;2023-09-08T01:28:34;7.60;;;6.80;;
68653;SDS011;55636;51.108;13.622;2023-09-08T01:29:38;8.13;;;6.82;;
68653;SDS011;55636;51.108;13.622;2023-09-08T01:30:42;7.25;;;6.50;;
68653;SDS011;55636;51.108;13.622;2023-09-08T01:31:45;7.22;;;6.53;;
68653;SDS011;55636;51.108;13.622;2023-09-08T01:32:48;9.05;;;6.97;;
68653;SDS011;55636;51.108;13.622;2023-09-08T01:33:52;7.43;;;6.50;;
68653;SDS011;55636;51.108;13.622;2023-09-08T01:34:56;7.97;;;6.50;;
68653;SDS011;55636;51.108;13.622;2023-09-08T01:36:00;8.70;;;6.35;;
68653;SDS011;55636;51.108;13.622;2023-09-08T01:37:03;6.95;;;6.25;;
68653;SDS011;55636;51.108;13.622;2023-09-08T01:38:06;7.85;;;6.65;;
68653;SDS011;55636;51.108;13.622;2023-09-08T01:39:09;7.65;;;6.30;;
68653;SDS011;55636;51.108;13.622;2023-09-08T01:40:11;8.00;;;6.70;;
68653;SDS011;55636;51.108;13.622;2023-09-08T01:41:14;8.13;;;7.13;;
68653;SDS011;55636;51.108;13.622;2023-09-08T01:42:17;7.53;;;6.65;;
68653;SDS011;55636;51.108;13.622;2023-09-08T01:43:19;7.63;;;6.65;;
68653;SDS011;55636;51.108;13.622;2023-09-08T01:44:22;7.82;;;7.03;;
68653;SDS011;55636;51.108;13.622;2023-09-08T01:45:24;8.32;;;7.07;;
68653;SDS011;55636;51.108;13.622;2023-09-08T01:46:27;7.47;;;6.68;;
68653;SDS011;55636;51.108;13.622;2023-09-08T01:47:29;7.65;;;6.65;;
68653;SDS011;55636;51.108;13.622;2023-09-08T01:48:32;7.90;;;6.95;;
68653;SDS011;55636;51.108;13.622;2023-09-08T01:49:35;7.85;;;7.00;;
68653;SDS011;55636;51.108;13.622;2023-09-08T01:50:38;8.45;;;7.55;;
68653;SDS011;55636;51.108;13.622;2023-09-08T01:51:40;8.38;;;7.10;;
68653;SDS011;55636;51.108;13.622;2023-09-08T01:52:42;8.13;;;7.15;;
68653;SDS011;55636;51.108;13.622;2023-09-08T01:53:45;7.97;;;7.00;;
68653;SDS011;55636;51.108;13.622;2023-09-08T01:54:47;7.57;;;6.88;;
68653;SDS011;55636;51.108;13.622;2023-09-08T01:55:50;8.38;;;7.07;;
68653;SDS011;55636;51.108;13.622;2023-09-08T01:56:53;8.18;;;7.25;;
68653;SDS011;55636;51.108;13.622;2023-09-08T01:57:56;8.48;;;7.25;;
68653;SDS011;55636;51.108;13.622;2023-09-08T01:58:58;8.75;;;7.55;;
68653;SDS011;55636;51.108;13.622;2023-09-08T02:00:02;8.38;;;7.57;;
68653;SDS011;55636;51.108;13.622;2023-09-08T02:01:13;8.80;;;7.32;;
68653;SDS011;55636;51.108;13.622;2023-09-08T02:02:15;8.00;;;7.20;;
68653;SDS011;55636;51.108;13.622;2023-09-08T02:03:18;8.35;;;7.35;;
68653;SDS011;55636;51.108;13.622;2023-09-08T02:04:20;7.97;;;6.93;;
68653;SDS011;55636;51.108;13.622;2023-09-08T02:05:23;8.50;;;6.85;;
68653;SDS011;55636;51.108;13.622;2023-09-08T02:06:27;9.00;;;7.55;;
68653;SDS011;55636;51.108;13.622;2023-09-08T02:07:30;9.50;;;7.55;;
68653;SDS011;55636;51.108;13.622;2023-09-08T02:08:33;8.95;;;7.60;;
68653;SDS011;55636;51.108;13.622;2023-09-08T02:09:37;8.57;;;7.07;;
68653;SDS011;55636;51.108;13.622;2023-09-08T02:10:40;7.95;;;7.15;;
68653;SDS011;55636;51.108;13.622;2023-09-08T02:11:42;7.45;;;6.70;;
68653;SDS011;55636;51.108;13.622;2023-09-08T02:12:45;10.27;;;7.15;;
68653;SDS011;55636;51.108;13.622;2023-09-08T02:13:47;7.72;;;6.90;;
68653;SDS011;55636;51.108;13.622;2023-09-08T02:14:50;8.80;;;6.80;;
68653;SDS011;55636;51.108;13.622;2023-09-08T02:15:54;8.55;;;6.97;;
68653;SDS011;55636;51.108;13.622;2023-09-08T02:16:56;8.77;;;6.80;;
68653;SDS011;55636;51.108;13.622;2023-09-08T02:17:59;7.88;;;7.15;;
68653;SDS011;55636;51.108;13.622;2023-09-08T02:19:02;7.97;;;7.18;;
68653;SDS011;55636;51.108;13.622;2023-09-08T02:20:04;8.27;;;7.45;;
68653;SDS011;55636;51.108;13.622;2023-09-08T02:21:07;7.82;;;7.10;;
68653;SDS011;55636;51.108;13.622;2023-09-08T02:22:10;7.93;;;7.13;;
68653;SDS011;55636;51.108;13.622;2023-09-08T02:23:13;7.63;;;6.82;;
68653;SDS011;55636;51.108;13.622;2023-09-08T02:24:15;9.30;;;8.13;;
68653;SDS011;55636;51.108;13.622;2023-09-08T02:25:18;9.55;;;7.80;;
68653;SDS011;55636;51.108;13.622;2023-09-08T02:26:20;9.45;;;7.70;;
68653;SDS011;55636;51.108;13.622;2023-09-08T02:27:22;9.93;;;7.90;;
68653;SDS011;55636;51.108;13.622;2023-09-08T02:28:25;8.32;;;6.75;;
68653;SDS011;55636;51.108;13.622;2023-09-08T02:29:28;7.95;;;7.10;;
68653;SDS011;55636;51.108;13.622;2023-09-08T02:30:31;9.48;;;7.28;;
68653;SDS011;55636;51.108;13.622;2023-09-08T02:31:34;7.93;;;7.00;;
68653;SDS011;55636;51.108;13.622;2023-09-08T02:32:39;8.95;;;7.72;;
68653;SDS011;55636;51.108;13.622;2023-09-08T02:33:47;8.45;;;7.45;;
68653;SDS011;55636;51.108;13.622;2023-09-08T02:34:50;8.43;;;7.07;;
68653;SDS011;55636;51.108;13.622;2023-09-08T02:35:52;8.68;;;7.43;;
68653;SDS011;55636;51.108;13.622;2023-09-08T02:36:55;8.07;;;7.28;;
68653;SDS011;55636;51.108;13.622;2023-09-08T02:37:59;8.40;;;7.50;;
68653;SDS011;55636;51.108;13.622;2023-09-08T02:39:02;8.02;;;7.22;;
68653;SDS011;55636;51.108;13.622;2023-09-08T02:40:06;8.98;;;7.10;;
68653;SDS011;55636;51.108;13.622;2023-09-08T02:41:10;8.77;;;7.40;;
68653;SDS011;55636;51.108;13.622;2023-09-08T02:42:13;8.10;;;7.30;;
68653;SDS011;55636;51.108;13.622;2023-09-08T02:43:15;8.60;;;7.28;;
68653;SDS011;55636;51.108;13.622;2023-09-08T02:44:17;8.82;;;7.50;;
68653;SDS011;55636;51.108;13.622;2023-09-08T02:45:20;8.55;;;7.30;;
68653;SDS011;55636;51.108;13.622;2023-09-08T02:46:24;7.65;;;6.90;;
68653;SDS011;55636;51.108;13.622;2023-09-08T02:47:27;9.35;;;7.60;;
68653;SDS011;55636;51.108;13.622;2023-09-08T02:48:32;9.63;;;7.90;;
68653;SDS011;55636;51.108;13.622;2023-09-08T02:49:35;9.00;;;7.55;;
68653;SDS011;55636;51.108;13.622;2023-09-08T02:50:38;8.43;;;7.53;;
68653;SDS011;55636;51.108;13.622;2023-09-08T02:51:40;8.18;;;7.10;;
68653;SDS011;55636;51.108;13.622;2023-09-08T02:52:43;7.55;;;6.82;;
68653;SDS011;55636;51.108;13.622;2023-09-08T02:53:46;8.20;;;7.35;;
68653;SDS011;55636;51.108;13.622;2023-09-08T02:54:48;8.10;;;7.30;;
68653;SDS011;55636;51.108;13.622;2023-09-08T02:55:51;8.18;;;7.38;;
68653;SDS011;55636;51.108;13.622;2023-09-08T02:56:54;8.73;;;7.80;;
68653;SDS011;55636;51.108;13.622;2023-09-08T02:57:56;8.35;;;7.40;;
68653;SDS011;55636;51.108;13.622;2023-09-08T02:58:59;9.40;;;7.90;;
68653;SDS011;55636;51.108;13.622;2023-09-08T03:00:02;8.25;;;7.45;;
68653;SDS011;55636;51.108;13.622;2023-09-08T03:01:12;8.82;;;7.40;;
68653;SDS011;55636;51.108;13.622;2023-09-08T03:02:17;8.15;;;7.20;;
68653;SDS011;55636;51.108;13.622;2023-09-08T03:03:20;9.25;;;7.45;;
68653;SDS011;55636;51.108;13.622;2023-09-08T03:04:24;8.48;;;7.47;;
68653;SDS011;55636;51.108;13.622;2023-09-08T03:05:27;8.30;;;7.47;;
68653;SDS011;55636;51.108;13.622;2023-09-08T03:06:30;9.43;;;6.97;;
68653;SDS011;55636;51.108;13.622;2023-09-08T03:07:32;8.00;;;7.20;;
68653;SDS011;55636;51.108;13.622;2023-09-08T03:08:36;8.52;;;7.30;;
68653;SDS011;55636;51.108;13.622;2023-09-08T03:09:39;8.30;;;7.10;;
68653;SDS011;55636;51.108;13.622;2023-09-08T03:10:41;8.38;;;7.28;;
68653;SDS011;55636;51.108;13.622;2023-09-08T03:11:44;7.63;;;6.82;;
68653;SDS011;55636;51.108;13.622;2023-09-08T03:12:47;8.30;;;7.10;;
68653;SDS011;55636;51.108;13.622;2023-09-08T03:13:51;7.07;;;6.38;;
68653;SDS011;55636;51.108;13.622;2023-09-08T03:14:54;7.97;;;6.60;;
68653;SDS011;55636;51.108;13.622;2023-09-08T03:15:58;9.43;;;7.50;;
68653;SDS011;55636;51.108;13.622;2023-09-08T03:17:04;8.00;;;7.20;;
68653;SDS011;55636;51.108;13.622;2023-09-08T03:18:07;8.02;;;7.20;;
68653;SDS011;55636;51.108;13.622;2023-09-08T03:19:09;7.85;;;7.05;;
68653;SDS011;55636;51.108;13.622;2023-09-08T03:20:12;8.32;;;6.90;;
68653;SDS011;55636;51.108;13.622;2023-09-08T03:21:16;7.78;;;6.82;;
68653;SDS011;55636;51.108;13.622;2023-09-08T03:22:18;7.78;;;6.97;;
68653;SDS011;55636;51.108;13.622;2023-09-08T03:23:21;7.03;;;6.32;;
68653;SDS011;55636;51.108;13.622;2023-09-08T03:24:23;9.55;;;6.70;;
68653;SDS011;55636;51.108;13.622;2023-09-08T03:25:26;7.50;;;6.63;;
68653;SDS011;55636;51.108;13.622;2023-09-08T03:26:28;7.72;;;6.20;;
68653;SDS011;55636;51.108;13.622;2023-09-08T03:27:30;7.63;;;6.80;;
68653;SDS011;55636;51.108;13.622;2023-09-08T03:28:33;8.85;;;7.22;;
68653;SDS011;55636;51.108;13.622;2023-09-08T03:29:37;7.97;;;7.03;;
68653;SDS011;55636;51.108;13.622;2023-09-08T03:30:40;7.53;;;6.78;;
68653;SDS011;55636;51.108;13.622;2023-09-08T03:31:42;8.85;;;6.70;;
68653;SDS011;55636;51.108;13.622;2023-09-08T03:32:45;7.40;;;6.55;;
68653;SDS011;55636;51.108;13.622;2023-09-08T03:33:48;8.23;;;6.95;;
68653;SDS011;55636;51.108;13.622;2023-09-08T03:34:51;7.47;;;6.60;;
68653;SDS011;55636;51.108;13.622;2023-09-08T03:35:53;7.82;;;6.90;;
68653;SDS011;55636;51.108;13.622;2023-09-08T03:36:57;8.40;;;6.68;;
68653;SDS011;55636;51.108;13.622;2023-09-08T03:38:00;9.27;;;7.45;;
68653;SDS011;55636;51.108;13.622;2023-09-08T03:39:03;7.53;;;6.70;;
68653;SDS011;55636;51.108;13.622;2023-09-08T03:40:05;6.78;;;6.07;;
68653;SDS011;55636;51.108;13.622;2023-09-08T03:41:09;7.50;;;6.47;;
68653;SDS011;55636;51.108;13.622;2023-09-08T03:42:13;8.00;;;7.20;;
68653;SDS011;55636;51.108;13.622;2023-09-08T03:43:15;7.38;;;6.68;;
68653;SDS011;55636;51.108;13.622;2023-09-08T03:44:18;9.98;;;6.78;;
68653;SDS011;55636;51.108;13.622;2023-09-08T03:45:20;7.82;;;6.63;;
68653;SDS011;55636;51.108;13.622;2023-09-08T03:46:23;8.07;;;6.47;;
68653;SDS011;55636;51.108;13.622;2023-09-08T03:47:27;7.88;;;6.60;;
68653;SDS011;55636;51.108;13.622;2023-09-08T03:48:30;7.25;;;6.22;;
68653;SDS011;55636;51.108;13.622;2023-09-08T03:49:32;7.03;;;6.32;;
68653;SDS011;55636;51.108;13.622;2023-09-08T03:50:35;6.97;;;6.25;;
68653;SDS011;55636;51.108;13.622;2023-09-08T03:51:37;9.15;;;6.43;;
68653;SDS011;55636;51.108;13.622;2023-09-08T03:52:40;7.85;;;6.22;;
68653;SDS011;55636;51.108;13.622;2023-09-08T03:53:42;7.35;;;6.55;;
68653;SDS011;55636;51.108;13.622;2023-09-08T03:54:45;7.30;;;6.60;;
68653;SDS011;55636;51.108;13.622;2023-09-08T03:55:48;8.02;;;6.80;;
68653;SDS011;55636;51.108;13.622;2023-09-08T03:56:51;6.95;;;6.25;;
68653;SDS011;55636;51.108;13.622;2023-09-08T03:57:53;6.93;;;6.22;;
68653;SDS011;55636;51.108;13.622;2023-09-08T03:58:55;6.55;;;5.90;;
68653;SDS011;55636;51.108;13.622;2023-09-08T03:59:58;6.75;;;6.07;;
68653;SDS011;55636;51.108;13.622;2023-09-08T04:01:01;7.30;;;6.47;;
68653;SDS011;55636;51.108;13.622;2023-09-08T04:02:03;6.97;;;6.28;;
68653;SDS011;55636;51.108;13.622;2023-09-08T04:03:06;8.50;;;6.60;;
68653;SDS011;55636;51.108;13.622;2023-09-08T04:04:08;7.47;;;6.40;;
68653;SDS011;55636;51.108;13.622;2023-09-08T04:05:11;7.25;;;6.32;;
68653;SDS011;55636;51.108;13.622;2023-09-08T04:06:14;6.50;;;5.90;;
68653;SDS011;55636;51.108;13.622;2023-09-08T04:07:16;8.68;;;6.88;;
68653;SDS011;55636;51.108;13.622;2023-09-08T04:08:19;7.00;;;6.30;;
68653;SDS011;55636;51.108;13.622;2023-09-08T04:09:21;7.65;;;6.68;;
68653;SDS011;55636;51.108;13.622;2023-09-08T04:10:24;8.57;;;6.35;;
68653;SDS011;55636;51.108;13.622;2023-09-08T04:11:27;9.07;;;7.18;;
68653;SDS011;55636;51.108;13.622;2023-09-08T04:12:29;7.55;;;6.63;;
68653;SDS011;55636;51.108;13.622;2023-09-08T04:13:31;10.30;;;7.00;;
68653;SDS011;55636;51.108;13.622;2023-09-08T04:14:34;7.55;;;6.57;;
68653;SDS011;55636;51.108;13.622;2023-09-08T04:15:38;7.97;;;7.15;;
68653;SDS011;55636;51.108;13.622;2023-09-08T04:16:40;6.95;;;6.30;;
68653;SDS011;55636;51.108;13.622;2023-09-08T04:17:43;8.88;;;6.95;;
68653;SDS011;55636;51.108;13.622;2023-09-08T04:18:45;7.55;;;6.80;;
68653;SDS011;55636;51.108;13.622;2023-09-08T04:19:48;8.38;;;6.88;;
68653;SDS011;55636;51.108;13.622;2023-09-08T04:20:50;7.30;;;6.60;;
68653;SDS011;55636;51.108;13.622;2023-09-08T04:21:53;7.78;;;6.75;;
68653;SDS011;55636;51.108;13.622;2023-09-08T04:22:55;7.50;;;6.35;;
68653;SDS011;55636;51.108;13.622;2023-09-08T04:23:58;9.60;;;7.43;;
68653;SDS011;55636;51.108;13.622;2023-09-08T04:25:01;8.27;;;7.47;;
68653;SDS011;55636;51.108;13.622;2023-09-08T04:26:03;8.68;;;7.03;;
68653;SDS011;55636;51.108;13.622;2023-09-08T04:27:06;7.93;;;7.13;;
68653;SDS011;55636;51.108;13.622;2023-09-08T04:28:11;8.45;;;6.93;;
68653;SDS011;55636;51.108;13.622;2023-09-08T04:29:14;8.23;;;7.10;;
68653;SDS011;55636;51.108;13.622;2023-09-08T04:30:16;9.07;;;7.07;;
68653;SDS011;55636;51.108;13.622;2023-09-08T04:31:20;7.55;;;6.85;;
68653;SDS011;55636;51.108;13.622;2023-09-08T04:32:24;8.18;;;6.78;;
68653;SDS011;55636;51.108;13.622;2023-09-08T04:33:27;7.72;;;6.93;;
68653;SDS011;55636;51.108;13.622;2023-09-08T04:34:31;8.27;;;7.35;;
68653;SDS011;55636;51.108;13.622;2023-09-08T04:35:33;8.07;;;7.28;;
68653;SDS011;55636;51.108;13.622;2023-09-08T04:36:36;8.30;;;7.10;;
68653;SDS011;55636;51.108;13.622;2023-09-08T04:37:38;7.88;;;7.10;;
68653;SDS011;55636;51.108;13.622;2023-09-08T04:38:42;8.25;;;7.40;;
68653;SDS011;55636;51.108;13.622;2023-09-08T04:39:44;7.72;;;6.93;;
68653;SDS011;55636;51.108;13.622;2023-09-08T04:40:47;7.90;;;6.95;;
68653;SDS011;55636;51.108;13.622;2023-09-08T04:41:51;8.00;;;6.93;;
68653;SDS011;55636;51.108;13.622;2023-09-08T04:42:54;8.60;;;7.22;;
68653;SDS011;55636;51.108;13.622;2023-09-08T04:43:57;8.00;;;7.20;;
68653;SDS011;55636;51.108;13.622;2023-09-08T04:45:00;7.85;;;6.95;;
68653;SDS011;55636;51.108;13.622;2023-09-08T04:46:03;8.52;;;7.63;;
68653;SDS011;55636;51.108;13.622;2023-09-08T04:47:06;8.27;;;7.40;;
68653;SDS011;55636;51.108;13.622;2023-09-08T04:48:08;8.07;;;7.28;;
68653;SDS011;55636;51.108;13.622;2023-09-08T04:49:11;7.88;;;6.80;;
68653;SDS011;55636;51.108;13.622;2023-09-08T04:50:14;7.80;;;7.00;;
68653;SDS011;55636;51.108;13.622;2023-09-08T04:51:16;8.05;;;7.25;;
68653;SDS011;55636;51.108;13.622;2023-09-08T04:52:19;7.93;;;7.10;;
68653;SDS011;55636;51.108;13.622;2023-09-08T04:53:21;9.30;;;7.07;;
68653;SDS011;55636;51.108;13.622;2023-09-08T04:54:24;8.73;;;7.50;;
68653;SDS011;55636;51.108;13.622;2023-09-08T04:55:30;8.05;;;7.10;;
68653;SDS011;55636;51.108;13.622;2023-09-08T04:56:33;8.25;;;7.43;;
68653;SDS011;55636;51.108;13.622;2023-09-08T04:57:35;10.68;;;7.20;;
68653;SDS011;55636;51.108;13.622;2023-09-08T04:58:38;7.97;;;7.20;;
68653;SDS011;55636;51.108;13.622;2023-09-08T04:59:41;7.63;;;6.82;;
68653;SDS011;55636;51.108;13.622;2023-09-08T05:00:44;9.32;;;7.85;;
68653;SDS011;55636;51.108;13.622;2023-09-08T05:01:47;8.05;;;7.20;;
68653;SDS011;55636;51.108;13.622;2023-09-08T05:02:49;7.93;;;7.13;;
68653;SDS011;55636;51.108;13.622;2023-09-08T05:03:52;9.38;;;7.55;;
68653;SDS011;55636;51.108;13.622;2023-09-08T05:04:55;8.90;;;7.20;;
68653;SDS011;55636;51.108;13.622;2023-09-08T05:05:57;8.18;;;7.38;;
68653;SDS011;55636;51.108;13.622;2023-09-08T05:07:00;10.80;;;7.63;;
68653;SDS011;55636;51.108;13.622;2023-09-08T05:08:03;9.32;;;8.02;;
68653;SDS011;55636;51.108;13.622;2023-09-08T05:09:06;10.98;;;7.75;;
68653;SDS011;55636;51.108;13.622;2023-09-08T05:10:09;8.02;;;7.22;;
68653;SDS011;55636;51.108;13.622;2023-09-08T05:11:13;8.77;;;7.88;;
68653;SDS011;55636;51.108;13.622;2023-09-08T05:12:15;10.35;;;7.85;;
68653;SDS011;55636;51.108;13.622;2023-09-08T05:13:18;8.75;;;7.50;;
68653;SDS011;55636;51.108;13.622;2023-09-08T05:14:33;9.07;;;7.63;;
68653;SDS011;55636;51.108;13.622;2023-09-08T05:15:36;8.32;;;7.50;;
68653;SDS011;55636;51.108;13.622;2023-09-08T05:16:40;11.60;;;7.72;;
68653;SDS011;55636;51.108;13.622;2023-09-08T05:17:52;9.52;;;7.63;;
68653;SDS011;55636;51.108;13.622;2023-09-08T05:18:56;8.70;;;7.80;;
68653;SDS011;55636;51.108;13.622;2023-09-08T05:19:58;8.48;;;7.38;;
68653;SDS011;55636;51.108;13.622;2023-09-08T05:21:01;9.70;;;7.47;;
68653;SDS011;55636;51.108;13.622;2023-09-08T05:22:04;7.75;;;6.95;;
68653;SDS011;55636;51.108;13.622;2023-09-08T05:23:09;8.38;;;7.13;;
68653;SDS011;55636;51.108;13.622;2023-09-08T05:24:12;8.10;;;7.30;;
68653;SDS011;55636;51.108;13.622;2023-09-08T05:25:15;8.13;;;7.20;;
68653;SDS011;55636;51.108;13.622;2023-09-08T05:26:17;7.57;;;6.85;;
68653;SDS011;55636;51.108;13.622;2023-09-08T05:27:20;7.72;;;6.90;;
68653;SDS011;55636;51.108;13.622;2023-09-08T05:28:22;7.70;;;6.88;;
68653;SDS011;55636;51.108;13.622;2023-09-08T05:29:25;7.82;;;7.03;;
68653;SDS011;55636;51.108;13.622;2023-09-08T05:30:28;8.98;;;6.95;;
68653;SDS011;55636;51.108;13.622;2023-09-08T05:31:30;8.63;;;6.85;;
68653;SDS011;55636;51.108;13.622;2023-09-08T05:32:33;7.28;;;6.50;;
68653;SDS011;55636;51.108;13.622;2023-09-08T05:33:36;8.55;;;6.53;;
68653;SDS011;55636;51.108;13.622;2023-09-08T05:34:38;7.80;;;6.80;;
68653;SDS011;55636;51.108;13.622;2023-09-08T05:35:41;9.55;;;7.22;;
68653;SDS011;55636;51.108;13.622;2023-09-08T05:36:45;7.72;;;6.93;;
68653;SDS011;55636;51.108;13.622;2023-09-08T05:37:47;7.78;;;6.97;;
68653;SDS011;55636;51.108;13.622;2023-09-08T05:38:50;8.55;;;6.95;;
68653;SDS011;55636;51.108;13.622;2023-09-08T05:39:52;7.97;;;7.18;;
68653;SDS011;55636;51.108;13.622;2023-09-08T05:40:54;7.90;;;7.10;;
68653;SDS011;55636;51.108;13.622;2023-09-08T05:41:57;7.28;;;6.35;;
68653;SDS011;55636;51.108;13.622;2023-09-08T05:42:59;7.60;;;6.80;;
68653;SDS011;55636;51.108;13.622;2023-09-08T05:44:02;7.72;;;6.53;;
68653;SDS011;55636;51.108;13.622;2023-09-08T05:45:05;8.23;;;7.35;;
68653;SDS011;55636;51.108;13.622;2023-09-08T05:46:08;8.18;;;6.72;;
68653;SDS011;55636;51.108;13.622;2023-09-08T05:47:10;8.73;;;6.65;;
68653;SDS011;55636;51.108;13.622;2023-09-08T05:48:13;8.00;;;7.20;;
68653;SDS011;55636;51.108;13.622;2023-09-08T05:49:15;8.10;;;7.00;;
68653;SDS011;55636;51.108;13.622;2023-09-08T05:50:18;8.70;;;6.75;;
68653;SDS011;55636;51.108;13.622;2023-09-08T05:51:20;7.45;;;6.35;;
68653;SDS011;55636;51.108;13.622;2023-09-08T05:52:22;7.28;;;6.43;;
68653;SDS011;55636;51.108;13.622;2023-09-08T05:53:26;9.23;;;6.70;;
68653;SDS011;55636;51.108;13.622;2023-09-08T05:54:29;7.30;;;6.60;;
68653;SDS011;55636;51.108;13.622;2023-09-08T05:55:33;8.50;;;6.97;;
68653;SDS011;55636;51.108;13.622;2023-09-08T05:56:36;7.80;;;6.63;;
68653;SDS011;55636;51.108;13.622;2023-09-08T05:57:40;8.75;;;6.95;;
68653;SDS011;55636;51.108;13.622;2023-09-08T05:58:42;7.28;;;6.55;;
68653;SDS011;55636;51.108;13.622;2023-09-08T05:59:45;9.02;;;6.90;;
68653;SDS011;55636;51.108;13.622;2023-09-08T06:00:47;7.45;;;6.65;;
68653;SDS011;55636;51.108;13.622;2023-09-08T06:01:50;8.00;;;7.18;;
68653;SDS011;55636;51.108;13.622;2023-09-08T06:02:53;7.85;;;7.05;;
68653;SDS011;55636;51.108;13.622;2023-09-08T06:03:55;7.72;;;6.63;;
68653;SDS011;55636;51.108;13.622;2023-09-08T06:05:00;9.02;;;6.85;;
68653;SDS011;55636;51.108;13.622;2023-09-08T06:06:02;8.07;;;6.55;;
68653;SDS011;55636;51.108;13.622;2023-09-08T06:07:05;8.13;;;6.65;;
68653;SDS011;55636;51.108;13.622;2023-09-08T06:08:08;11.95;;;6.97;;
68653;SDS011;55636;51.108;13.622;2023-09-08T06:09:14;7.78;;;6.97;;
68653;SDS011;55636;51.108;13.622;2023-09-08T06:10:18;7.15;;;6.45;;
68653;SDS011;55636;51.108;13.622;2023-09-08T06:11:21;7.53;;;6.60;;
68653;SDS011;55636;51.108;13.622;2023-09-08T06:12:24;7.63;;;6.65;;
68653;SDS011;55636;51.108;13.622;2023-09-08T06:13:27;9.52;;;6.70;;
68653;SDS011;55636;51.108;13.622;2023-09-08T06:14:29;9.90;;;6.43;;
68653;SDS011;55636;51.108;13.622;2023-09-08T06:15:32;7.68;;;6.85;;